Startpagina
METAR-TAF:

METAR-TAF

Vliegvelden :

Spangdahlem, Duitsland

Vliegbasis Spangdahlem

breedte: 49-59N, lengte: 006-42E, hoogte: 365 m

Actueel weer

Dit bericht is 14 minuten geleden gemaakt, om 02:58 UTC
Wind 7 kt uit het westen
Temperatuur 17°C
Vochtigheid 82%
Druk 1016 hPa
Zicht 10 km of meer
Onbewolkt

METAR: ETAD 240258Z AUTO 27007KT 9999 CLR 17/14 A3001 RMK AO2 SLP139 T01680141 52003 TSNO $

Tijdstip: 05:12 (03:12 UTC)

Verwachting

Dit bericht is 7 uur en het 24 minuten geleden gemaakt, om 19:48 UTC
Verwachting geldig van 23 om 19 UTC tot 25 om 01 UTC
Wind 6 kt uit het zuiden
Zicht 10 km of meer
Verspreide wolken op 3000 ft
Wijzigt naar
van 24 om 06 UTC tot 24 om 07 UTC
Wind 6 kt uit het westen
Zicht: 2404 m
Weinig wolken op 5000 ft
Gebroken wolken op 20000 ft

TAF: ETAD 231948Z 2319/2501 19006KT 9999 SCT030 QNH2996INS BECMG 2406/2407 27006KT 9999 FEW050 BKN200 QNH3000INS TX26/2415Z TN12/2406Z LAST NO AMDS AFT 2320 NEXT 2404

Waarnemingen en weersverwachtingen van meer dan 4000 vliegvelden (METAR en TAF).

De beschikbare stations zijn de gele en rode punten op de kaart.

Ga met uw muis naar het station om de naam te zien.

Klik dan om waarnemingen en weersverwachtingen te zien.

kaart wijzigen: klik op de groene knoppen met een zwart kruis om in te zoomen, op de groene knop met een streepje om uit te zoomen of op de groene pijlen voor aangrenzende kaarten.


METAR-TAF: